Huvudsida
METAR-TAF:

METAR-TAF

Flygplatser :

Abraham González International Airport

Juárez, Mexiko

latitud: 31-38N, longitud: 106-26W, höjd: 1171 m

Aktuellt väderrapport

Denna rapport gjordes för 21 minuter sedan, klockan 14:44 UTC
Stilla vind
Temperatur 9°C
Fuktighet 31%
Tryck 1021 hPa
Sikt: 16.1 km
Brutna moln på en höjd av 10000 ft

METAR: MMCS 291444Z 00000KT 10SM BKN100 09/M07 A3016 RMK SLP166 5//// 956 8/070

Tid: 08:05 (15:05 UTC)

Väderprognos

Denna rapport gjordes för 9 timmar och 52 minuter sedan, klockan 05:13 UTC
Prognos gäller från 29 kl. 06 UTC till 30 kl. 06 UTC
Vind 5 kt från syd/sydväst
Sikt: 10 km
Klar himmel
Från 29 kl. 1800 UTC
Vind 10 kt från syd
Sikt: 10 km
Spridda moln på en höjd av 25000 ft
Från 30 kl. 0500 UTC
Vind 5 kt från syd
Sikt: 10 km
Klar himmel

TAF: MMCS 290513Z 2906/3006 21005KT P6SM SKC FM291800 18010KT P6SM SCT250 FM300500 19005KT P6SM SKC

Aktuella väderrapporter och prognoser från 4000 flygplatser (METAR- och TAF-rapporter).

De tillgängliga stationerna syns som gula och röda prickar på kartan.

För musen över prickarna för att se namnen på stationerna.

Klicka sedan för att få väderrapporter och prognoser.

För att ändra kartan: Klicka på de gröna knapparna med ett svart kors på för att zooma in; den gröna knappen med ett streck på för att zooma ut; eller på de gröna pilarna för angränsande kartor.


METAR-TAF: